Darstellungsparameter: Aktuell verwendete Einstellungen:
Skalierung der Graphiken ... ?
xyx+y,   Skalierungsfaktor:      Skalierung: Modus: x, Faktor: 1
Darstellungszeitraum ... ?
Vom - - bis: - -   Zeitraum: 13.08.2016 - 14.08.2016
Min/Max/Avg-Anzeige ... ?
Zeige MMA aktuell
Zeige MMA Monat
Zeige MMA alles
Zeige --A aktuell
Zeige --A Monat
Zeige --A alles
Keine MMA-Anzeige
MMA:
Keine MMA-Graphiken
MMA-Basis: 13.08.2016 - 14.08.2016
Quicknavigation für Darstellung... ?
Tage:      1T, 2T, 3T, 5T -1T -2T -3T -5T +1T +2T +3T +5T
Wochen: 1W, 2W, 3W -1W -2W -3W +1W +2W +3W
Monate: 1M, 3M, 6M -1M -3M -6M +1M +3M +6M
Jahre:    1J, 3J, 5J, 10J -1J -3J -5J -10J +1J +3J +5J +10J
Nutze für die Darstellung ... ?
Originaldaten oder Mittelwerte auf ...
Stundenbasis Tagesbasis Wochenbasis
Monatsbasis Jahresbasis      Datenbasis: Original-Daten
Darstellen als:
Statistik (Auto) Statistik J:M      Darstellung:
Zur Graphik,    zurück zur Übersicht aller Sensoren.
 
Tabellarische Datenbersicht: ?
 
Sensor: Nr:Datum:Temp:Feuchte:Taupunkt:
Aussen-T/F 1 13-08-2016 00:00:00 18.5 C 90 % 16.83 C
2 13-08-2016 00:05:00 18.5 C 90 % 16.83 C
3 13-08-2016 00:10:00 18.5 C 90 % 16.83 C
4 13-08-2016 00:15:00 18.5 C 90 % 16.83 C
5 13-08-2016 00:20:00 18.4 C 90 % 16.73 C
6 13-08-2016 00:25:00 18.4 C 90 % 16.73 C
7 13-08-2016 00:30:00 18.3 C 90 % 16.63 C
8 13-08-2016 00:35:00 18.3 C 90 % 16.63 C
9 13-08-2016 00:40:00 18.2 C 90 % 16.53 C
10 13-08-2016 00:45:00 18.1 C 90 % 16.43 C
11 13-08-2016 00:50:00 18.1 C 90 % 16.43 C
12 13-08-2016 00:55:00 18 C 91 % 16.51 C
13 13-08-2016 01:00:00 17.9 C 91 % 16.41 C
14 13-08-2016 01:05:00 17.9 C 91 % 16.41 C
15 13-08-2016 01:10:00 17.8 C 91 % 16.31 C
16 13-08-2016 01:15:00 17.8 C 91 % 16.31 C
17 13-08-2016 01:20:00 17.8 C 91 % 16.31 C
18 13-08-2016 01:25:00 17.8 C 91 % 16.31 C
19 13-08-2016 01:30:00 17.7 C 91 % 16.21 C
20 13-08-2016 01:35:00 17.7 C 92 % 16.38 C
21 13-08-2016 01:40:00 17.7 C 92 % 16.38 C
22 13-08-2016 01:45:00 17.6 C 92 % 16.28 C
23 13-08-2016 01:50:00 17.6 C 92 % 16.28 C
24 13-08-2016 01:55:00 17.6 C 92 % 16.28 C
25 13-08-2016 02:00:00 17.5 C 92 % 16.19 C
Sensor: Nr:Datum:Temp:Feuchte:Taupunkt:
Aussen-T/F 26 13-08-2016 02:05:00 17.4 C 92 % 16.09 C
27 13-08-2016 02:10:00 17.4 C 92 % 16.09 C
28 13-08-2016 02:15:00 17.3 C 92 % 15.99 C
29 13-08-2016 02:20:00 17.3 C 92 % 15.99 C
30 13-08-2016 02:25:00 17.2 C 92 % 15.89 C
31 13-08-2016 02:30:00 17.2 C 92 % 15.89 C
32 13-08-2016 02:35:00 17.1 C 92 % 15.79 C
33 13-08-2016 02:40:00 17.1 C 93 % 15.96 C
34 13-08-2016 02:45:00 17.1 C 93 % 15.96 C
35 13-08-2016 02:50:00 17 C 93 % 15.86 C
36 13-08-2016 02:55:00 16.9 C 93 % 15.76 C
37 13-08-2016 03:00:00 16.8 C 92 % 15.49 C
38 13-08-2016 03:05:00 16.8 C 93 % 15.66 C
39 13-08-2016 03:10:00 16.7 C 93 % 15.56 C
40 13-08-2016 03:15:00 16.7 C 93 % 15.56 C
41 13-08-2016 03:20:00 16.6 C 93 % 15.46 C
42 13-08-2016 03:25:00 16.6 C 93 % 15.46 C
43 13-08-2016 03:30:00 16.4 C 93 % 15.27 C
44 13-08-2016 03:35:00 16.4 C 93 % 15.27 C
45 13-08-2016 03:40:00 16.3 C 93 % 15.17 C
46 13-08-2016 03:45:00 16.3 C 93 % 15.17 C
47 13-08-2016 03:50:00 16.2 C 93 % 15.07 C
48 13-08-2016 03:55:00 16.1 C 93 % 14.97 C
49 13-08-2016 04:00:00 16.1 C 93 % 14.97 C
50 13-08-2016 04:05:00 15.9 C 94 % 14.94 C
Sensor: Nr:Datum:Temp:Feuchte:Taupunkt:
Aussen-T/F 51 13-08-2016 04:10:00 15.9 C 94 % 14.94 C
52 13-08-2016 04:15:00 15.8 C 94 % 14.84 C
53 13-08-2016 04:20:00 15.8 C 94 % 14.84 C
54 13-08-2016 04:25:00 15.7 C 94 % 14.74 C
55 13-08-2016 04:30:00 15.6 C 94 % 14.64 C
56 13-08-2016 04:35:00 15.6 C 94 % 14.64 C
57 13-08-2016 04:40:00 15.5 C 94 % 14.54 C
58 13-08-2016 04:45:00 15.4 C 94 % 14.44 C
59 13-08-2016 04:50:00 15.4 C 94 % 14.44 C
60 13-08-2016 04:55:00 15.3 C 94 % 14.34 C
61 13-08-2016 05:00:00 15.3 C 94 % 14.34 C
62 13-08-2016 05:05:00 15.2 C 94 % 14.24 C
63 13-08-2016 05:10:00 15.1 C 94 % 14.14 C
64 13-08-2016 05:15:00 15 C 94 % 14.04 C
65 13-08-2016 05:20:00 15 C 95 % 14.21 C
66 13-08-2016 05:25:00 14.9 C 95 % 14.11 C
67 13-08-2016 05:30:00 14.9 C 95 % 14.11 C
68 13-08-2016 05:35:00 14.8 C 94 % 13.84 C
69 13-08-2016 05:40:00 14.9 C 95 % 14.11 C
70 13-08-2016 05:45:00 14.9 C 95 % 14.11 C
71 13-08-2016 05:50:00 14.9 C 95 % 14.11 C
72 13-08-2016 05:55:00 14.9 C 95 % 14.11 C
73 13-08-2016 06:00:00 14.9 C 95 % 14.11 C
74 13-08-2016 06:05:00 14.9 C 95 % 14.11 C
75 13-08-2016 06:10:00 14.8 C 95 % 14.01 C
Sensor: Nr:Datum:Temp:Feuchte:Taupunkt:
Aussen-T/F 76 13-08-2016 06:15:00 14.8 C 95 % 14.01 C
77 13-08-2016 06:20:00 14.8 C 95 % 14.01 C
78 13-08-2016 06:25:00 14.8 C 95 % 14.01 C
79 13-08-2016 06:30:00 14.7 C 95 % 13.91 C
80 13-08-2016 06:35:00 14.6 C 95 % 13.81 C
81 13-08-2016 06:40:00 14.5 C 95 % 13.71 C
82 13-08-2016 06:45:00 14.4 C 95 % 13.61 C
83 13-08-2016 06:50:00 14.4 C 95 % 13.61 C
84 13-08-2016 06:55:00 14.4 C 95 % 13.61 C
85 13-08-2016 07:00:00 14.4 C 95 % 13.61 C
86 13-08-2016 07:05:00 14.4 C 95 % 13.61 C
87 13-08-2016 07:10:00 14.4 C 95 % 13.61 C
88 13-08-2016 07:15:00 14.4 C 95 % 13.61 C
89 13-08-2016 07:20:00 14.4 C 95 % 13.61 C
90 13-08-2016 07:25:00 14.4 C 96 % 13.77 C
91 13-08-2016 07:30:00 14.6 C 96 % 13.97 C
92 13-08-2016 07:35:00 14.7 C 96 % 14.07 C
93 13-08-2016 07:40:00 14.7 C 96 % 14.07 C
94 13-08-2016 07:45:00 14.8 C 96 % 14.17 C
95 13-08-2016 07:50:00 14.9 C 96 % 14.27 C
96 13-08-2016 07:55:00 14.9 C 96 % 14.27 C
97 13-08-2016 08:00:00 15 C 96 % 14.37 C
98 13-08-2016 08:05:00 15.1 C 96 % 14.47 C
99 13-08-2016 08:10:00 15.1 C 96 % 14.47 C
100 13-08-2016 08:15:00 15.2 C 96 % 14.57 C
Sensor: Nr:Datum:Temp:Feuchte:Taupunkt:
Aussen-T/F 101 13-08-2016 08:20:00 15.3 C 96 % 14.67 C
102 13-08-2016 08:25:00 15.4 C 96 % 14.77 C
103 13-08-2016 08:30:00 15.4 C 96 % 14.77 C
104 13-08-2016 08:35:00 15.4 C 96 % 14.77 C
105 13-08-2016 08:40:00 15.5 C 96 % 14.86 C
106 13-08-2016 08:45:00 15.6 C 96 % 14.96 C
107 13-08-2016 08:50:00 15.7 C 96 % 15.06 C
108 13-08-2016 08:55:00 15.9 C 96 % 15.26 C
109 13-08-2016 09:00:00 16 C 96 % 15.36 C
110 13-08-2016 09:05:00 16.2 C 96 % 15.56 C
111 13-08-2016 09:10:00 16.3 C 95 % 15.5 C
112 13-08-2016 09:15:00 16.4 C 95 % 15.6 C
113 13-08-2016 09:20:00 16.4 C 95 % 15.6 C
114 13-08-2016 09:25:00 16.6 C 95 % 15.8 C
115 13-08-2016 09:30:00 16.7 C 95 % 15.9 C
116 13-08-2016 09:35:00 16.8 C 95 % 15.99 C
117 13-08-2016 09:40:00 17 C 95 % 16.19 C
118 13-08-2016 09:45:00 17.1 C 95 % 16.29 C
119 13-08-2016 09:50:00 17.3 C 94 % 16.33 C
120 13-08-2016 09:55:00 17.5 C 94 % 16.52 C
121 13-08-2016 10:00:00 17.7 C 93 % 16.55 C
122 13-08-2016 10:05:00 17.9 C 93 % 16.75 C
123 13-08-2016 10:10:00 18.1 C 92 % 16.78 C
124 13-08-2016 10:15:00 18.6 C 89 % 16.75 C
125 13-08-2016 10:20:00 18.9 C 88 % 16.87 C
Sensor: Nr:Datum:Temp:Feuchte:Taupunkt:
Aussen-T/F 126 13-08-2016 10:25:00 19.2 C 87 % 16.98 C
127 13-08-2016 10:30:00 19.4 C 86 % 17 C
128 13-08-2016 10:35:00 19.6 C 87 % 17.38 C
129 13-08-2016 10:40:00 19.8 C 86 % 17.39 C
130 13-08-2016 10:45:00 20 C 85 % 17.4 C
131 13-08-2016 10:50:00 20.3 C 84 % 17.51 C
132 13-08-2016 10:55:00 20.6 C 82 % 17.42 C
133 13-08-2016 11:00:00 20.9 C 81 % 17.52 C
134 13-08-2016 11:05:00 21.2 C 80 % 17.61 C
135 13-08-2016 11:10:00 21.4 C 79 % 17.61 C
136 13-08-2016 11:15:00 21.5 C 79 % 17.7 C
137 13-08-2016 11:20:00 21.6 C 80 % 18 C
138 13-08-2016 11:25:00 21.7 C 79 % 17.9 C
139 13-08-2016 11:30:00 21.8 C 81 % 18.39 C
140 13-08-2016 11:35:00 21.8 C 80 % 18.2 C
141 13-08-2016 11:40:00 22.1 C 79 % 18.29 C
142 13-08-2016 11:45:00 22.2 C 80 % 18.58 C
143 13-08-2016 11:50:00 22.2 C 79 % 18.38 C
144 13-08-2016 11:55:00 22.2 C 79 % 18.38 C
145 13-08-2016 12:00:00 22.3 C 80 % 18.68 C
146 13-08-2016 12:05:00 22.3 C 78 % 18.28 C
147 13-08-2016 12:10:00 22.4 C 76 % 17.96 C
148 13-08-2016 12:15:00 22.6 C 75 % 17.94 C
149 13-08-2016 12:20:00 22.8 C 74 % 17.92 C
150 13-08-2016 12:25:00 22.9 C 76 % 18.44 C
Sensor: Nr:Datum:Temp:Feuchte:Taupunkt:
Aussen-T/F 151 13-08-2016 12:30:00 22.9 C 75 % 18.23 C
152 13-08-2016 12:35:00 22.8 C 75 % 18.14 C
153 13-08-2016 12:40:00 22.8 C 75 % 18.14 C
154 13-08-2016 12:45:00 22.8 C 77 % 18.56 C
155 13-08-2016 12:50:00 22.8 C 75 % 18.14 C
156 13-08-2016 12:55:00 22.9 C 74 % 18.02 C
157 13-08-2016 13:00:00 23.1 C 73 % 17.99 C
158 13-08-2016 13:05:00 23.2 C 74 % 18.31 C
159 13-08-2016 13:10:00 23.2 C 74 % 18.31 C
160 13-08-2016 13:15:00 23.2 C 72 % 17.87 C
161 13-08-2016 13:20:00 23.3 C 71 % 17.75 C
162 13-08-2016 13:25:00 23.4 C 73 % 18.28 C
163 13-08-2016 13:30:00 23.6 C 72 % 18.26 C
164 13-08-2016 13:35:00 23.8 C 74 % 18.89 C
165 13-08-2016 13:40:00 23.8 C 72 % 18.45 C
166 13-08-2016 13:45:00 23.8 C 69 % 17.77 C
167 13-08-2016 13:50:00 24.1 C 68 % 17.82 C
168 13-08-2016 13:55:00 24.2 C 74 % 19.27 C
169 13-08-2016 14:00:00 24.3 C 72 % 18.93 C
170 13-08-2016 14:05:00 24.5 C 68 % 18.2 C
171 13-08-2016 14:10:00 24.6 C 67 % 18.06 C
172 13-08-2016 14:15:00 24.7 C 70 % 18.86 C
173 13-08-2016 14:20:00 24.8 C 68 % 18.49 C
174 13-08-2016 14:25:00 24.8 C 68 % 18.49 C
175 13-08-2016 14:30:00 24.8 C 67 % 18.25 C
Sensor: Nr:Datum:Temp:Feuchte:Taupunkt:
Aussen-T/F 176 13-08-2016 14:35:00 24.9 C 69 % 18.82 C
177 13-08-2016 14:40:00 24.8 C 63 % 17.28 C
178 13-08-2016 14:45:00 24.8 C 58 % 15.98 C
179 13-08-2016 14:50:00 25.3 C 66 % 18.49 C
180 13-08-2016 14:55:00 25.4 C 71 % 19.76 C
181 13-08-2016 15:00:00 25.4 C 69 % 19.3 C
182 13-08-2016 15:05:00 25.3 C 58 % 16.44 C
183 13-08-2016 15:10:00 25.3 C 57 % 16.17 C
184 13-08-2016 15:15:00 25.8 C 55 % 16.07 C
185 13-08-2016 15:20:00 26.2 C 52 % 15.57 C
186 13-08-2016 15:25:00 26.3 C 54 % 16.25 C
187 13-08-2016 15:30:00 26.3 C 63 % 18.69 C
188 13-08-2016 15:35:00 26.4 C 59 % 17.74 C
189 13-08-2016 15:40:00 26.6 C 59 % 17.93 C
190 13-08-2016 15:45:00 26.6 C 60 % 18.2 C
191 13-08-2016 15:50:00 26.7 C 63 % 19.07 C
192 13-08-2016 15:55:00 26.7 C 59 % 18.02 C
193 13-08-2016 16:00:00 26.5 C 55 % 16.72 C
194 13-08-2016 16:05:00 26.8 C 54 % 16.71 C
195 13-08-2016 16:10:00 27.4 C 47 % 15.09 C
196 13-08-2016 16:15:00 28 C 45 % 14.96 C
197 13-08-2016 16:20:00 28.5 C 44 % 15.06 C
198 13-08-2016 16:25:00 28.8 C 42 % 14.61 C
199 13-08-2016 16:30:00 29.2 C 40 % 14.21 C
200 13-08-2016 16:35:00 29.5 C 46 % 16.66 C
Sensor: Nr:Datum:Temp:Feuchte:Taupunkt:
Aussen-T/F 201 13-08-2016 16:40:00 29.7 C 41 % 15.04 C
202 13-08-2016 16:45:00 29.7 C 50 % 18.16 C
203 13-08-2016 16:50:00 29.8 C 43 % 15.87 C
204 13-08-2016 16:55:00 29.7 C 47 % 17.18 C
205 13-08-2016 17:00:00 29.7 C 45 % 16.5 C
206 13-08-2016 17:05:00 29.8 C 51 % 18.57 C
207 13-08-2016 17:10:00 29.8 C 42 % 15.51 C
208 13-08-2016 17:15:00 30 C 53 % 19.37 C
209 13-08-2016 17:20:00 29.9 C 41 % 15.22 C
210 13-08-2016 17:25:00 29.8 C 44 % 16.23 C
211 13-08-2016 17:30:00 29.8 C 38 % 13.95 C
212 13-08-2016 17:35:00 29.9 C 40 % 14.84 C
213 13-08-2016 17:40:00 30 C 45 % 16.77 C
214 13-08-2016 17:45:00 29.9 C 44 % 16.32 C
215 13-08-2016 17:50:00 29.8 C 39 % 14.36 C
216 13-08-2016 17:55:00 29.6 C 45 % 16.41 C
217 13-08-2016 18:00:00 29.5 C 38 % 13.69 C
218 13-08-2016 18:05:00 29.6 C 37 % 13.37 C
219 13-08-2016 18:10:00 29.8 C 40 % 14.75 C
220 13-08-2016 18:15:00 29.9 C 45 % 16.68 C
221 13-08-2016 18:20:00 29.7 C 38 % 13.87 C
222 13-08-2016 18:25:00 29.7 C 36 % 13.04 C
223 13-08-2016 18:30:00 29.8 C 35 % 12.69 C
224 13-08-2016 18:35:00 29.9 C 39 % 14.44 C
225 13-08-2016 18:40:00 29.8 C 46 % 16.93 C
Sensor: Nr:Datum:Temp:Feuchte:Taupunkt:
Aussen-T/F 226 13-08-2016 18:45:00 29.4 C 42 % 15.15 C
227 13-08-2016 18:50:00 29.3 C 46 % 16.48 C
228 13-08-2016 18:55:00 29.3 C 45 % 16.13 C
229 13-08-2016 19:00:00 29.2 C 39 % 13.82 C
230 13-08-2016 19:05:00 29.1 C 43 % 15.24 C
231 13-08-2016 19:10:00 28.6 C 48 % 16.51 C
232 13-08-2016 19:15:00 27.9 C 50 % 16.51 C
233 13-08-2016 19:20:00 27.2 C 52 % 16.49 C
234 13-08-2016 19:25:00 26.3 C 50 % 15.05 C
235 13-08-2016 19:30:00 25.9 C 49 % 14.37 C
236 13-08-2016 19:35:00 25.7 C 57 % 16.54 C
237 13-08-2016 19:40:00 25.3 C 58 % 16.44 C
238 13-08-2016 19:45:00 25.2 C 54 % 15.23 C
239 13-08-2016 19:50:00 25.2 C 54 % 15.23 C
240 13-08-2016 19:55:00 25.2 C 58 % 16.35 C
241 13-08-2016 20:00:00 25.1 C 57 % 15.98 C
242 13-08-2016 20:05:00 25 C 62 % 17.21 C
243 13-08-2016 20:10:00 24.8 C 64 % 17.53 C
244 13-08-2016 20:15:00 24.3 C 64 % 17.05 C
245 13-08-2016 20:20:00 23.9 C 66 % 17.16 C
246 13-08-2016 20:25:00 23.5 C 67 % 17.02 C
247 13-08-2016 20:30:00 23.2 C 70 % 17.42 C
248 13-08-2016 20:35:00 22.9 C 71 % 17.36 C
249 13-08-2016 20:40:00 22.6 C 73 % 17.51 C
250 13-08-2016 20:45:00 22.2 C 73 % 17.13 C
Sensor: Nr:Datum:Temp:Feuchte:Taupunkt:
Aussen-T/F 251 13-08-2016 20:50:00 21.9 C 75 % 17.27 C
252 13-08-2016 20:55:00 21.6 C 75 % 16.98 C
253 13-08-2016 21:00:00 21.4 C 76 % 16.99 C
254 13-08-2016 21:05:00 21.2 C 77 % 17.01 C
255 13-08-2016 21:10:00 20.9 C 78 % 16.92 C
256 13-08-2016 21:15:00 20.7 C 79 % 16.93 C
257 13-08-2016 21:20:00 20.5 C 80 % 16.93 C
258 13-08-2016 21:25:00 20.3 C 80 % 16.74 C
259 13-08-2016 21:30:00 20.2 C 81 % 16.84 C
260 13-08-2016 21:35:00 20 C 81 % 16.64 C
261 13-08-2016 21:40:00 19.8 C 81 % 16.45 C
262 13-08-2016 21:45:00 19.7 C 82 % 16.54 C
263 13-08-2016 21:50:00 19.6 C 83 % 16.63 C
264 13-08-2016 21:55:00 19.4 C 83 % 16.44 C
265 13-08-2016 22:00:00 19.3 C 84 % 16.53 C
266 13-08-2016 22:05:00 19.2 C 84 % 16.43 C
267 13-08-2016 22:10:00 19.1 C 84 % 16.33 C
268 13-08-2016 22:15:00 19 C 85 % 16.42 C
269 13-08-2016 22:20:00 18.9 C 85 % 16.32 C
270 13-08-2016 22:25:00 18.8 C 85 % 16.23 C
271 13-08-2016 22:30:00 18.8 C 85 % 16.23 C
272 13-08-2016 22:35:00 18.7 C 85 % 16.13 C
273 13-08-2016 22:40:00 18.6 C 86 % 16.21 C
274 13-08-2016 22:45:00 18.6 C 86 % 16.21 C
275 13-08-2016 22:50:00 18.5 C 86 % 16.11 C
Sensor: Nr:Datum:Temp:Feuchte:Taupunkt:
Aussen-T/F 276 13-08-2016 22:55:00 18.4 C 86 % 16.02 C
277 13-08-2016 23:00:00 18.3 C 86 % 15.92 C
278 13-08-2016 23:05:00 18.3 C 87 % 16.1 C
279 13-08-2016 23:10:00 18.2 C 87 % 16 C
280 13-08-2016 23:15:00 18.2 C 87 % 16 C
281 13-08-2016 23:20:00 18.1 C 87 % 15.9 C
282 13-08-2016 23:25:00 17.9 C 87 % 15.71 C
283 13-08-2016 23:30:00 17.8 C 87 % 15.61 C
284 13-08-2016 23:35:00 17.7 C 88 % 15.69 C
285 13-08-2016 23:40:00 17.5 C 88 % 15.49 C
286 13-08-2016 23:45:00 17.3 C 89 % 15.47 C
287 13-08-2016 23:50:00 17.3 C 89 % 15.47 C
288 13-08-2016 23:55:00 17.2 C 89 % 15.37 C
289 14-08-2016 00:00:00 17.1 C 90 % 15.45 C
290 14-08-2016 00:05:00 16.9 C 90 % 15.25 C
291 14-08-2016 00:10:00 16.8 C 90 % 15.15 C
292 14-08-2016 00:15:00 16.7 C 90 % 15.05 C
293 14-08-2016 00:20:00 16.6 C 90 % 14.95 C
294 14-08-2016 00:25:00 16.6 C 91 % 15.13 C
295 14-08-2016 00:30:00 16.6 C 91 % 15.13 C
296 14-08-2016 00:35:00 16.4 C 91 % 14.93 C
297 14-08-2016 00:40:00 16.3 C 91 % 14.83 C
298 14-08-2016 00:45:00 16.2 C 91 % 14.73 C
299 14-08-2016 00:50:00 16.2 C 91 % 14.73 C
300 14-08-2016 00:55:00 16.1 C 91 % 14.63 C
Sensor: Nr:Datum:Temp:Feuchte:Taupunkt:
Aussen-T/F 301 14-08-2016 01:00:00 16.1 C 92 % 14.8 C
302 14-08-2016 01:05:00 15.9 C 92 % 14.6 C
303 14-08-2016 01:10:00 15.9 C 92 % 14.6 C
304 14-08-2016 01:15:00 15.8 C 92 % 14.5 C
305 14-08-2016 01:20:00 15.7 C 92 % 14.4 C
306 14-08-2016 01:25:00 15.7 C 92 % 14.4 C
307 14-08-2016 01:30:00 15.6 C 92 % 14.31 C
308 14-08-2016 01:35:00 15.6 C 92 % 14.31 C
309 14-08-2016 01:40:00 15.5 C 92 % 14.21 C
310 14-08-2016 01:45:00 15.4 C 92 % 14.11 C
311 14-08-2016 01:50:00 15.3 C 93 % 14.18 C
312 14-08-2016 01:55:00 15.3 C 93 % 14.18 C
313 14-08-2016 02:00:00 15.3 C 93 % 14.18 C
314 14-08-2016 02:05:00 15.3 C 93 % 14.18 C
315 14-08-2016 02:10:00 15.3 C 93 % 14.18 C
316 14-08-2016 02:15:00 15.3 C 93 % 14.18 C
317 14-08-2016 02:20:00 15.2 C 93 % 14.08 C
318 14-08-2016 02:25:00 15.2 C 93 % 14.08 C
319 14-08-2016 02:30:00 15.1 C 93 % 13.98 C
320 14-08-2016 02:35:00 15 C 93 % 13.88 C
321 14-08-2016 02:40:00 14.9 C 93 % 13.78 C
322 14-08-2016 02:45:00 14.8 C 93 % 13.68 C
323 14-08-2016 02:50:00 14.8 C 94 % 13.84 C
324 14-08-2016 02:55:00 14.8 C 94 % 13.84 C
325 14-08-2016 03:00:00 14.8 C 94 % 13.84 C
Sensor: Nr:Datum:Temp:Feuchte:Taupunkt:
Aussen-T/F 326 14-08-2016 03:05:00 14.8 C 94 % 13.84 C
327 14-08-2016 03:10:00 14.7 C 94 % 13.74 C
328 14-08-2016 03:15:00 14.6 C 94 % 13.65 C
329 14-08-2016 03:20:00 14.6 C 94 % 13.65 C
330 14-08-2016 03:25:00 14.6 C 94 % 13.65 C
331 14-08-2016 03:30:00 14.6 C 94 % 13.65 C
332 14-08-2016 03:35:00 14.6 C 94 % 13.65 C
333 14-08-2016 03:40:00 14.5 C 94 % 13.55 C
334 14-08-2016 03:45:00 14.4 C 94 % 13.45 C
335 14-08-2016 03:50:00 14.4 C 94 % 13.45 C
336 14-08-2016 03:55:00 14.4 C 94 % 13.45 C
337 14-08-2016 04:00:00 14.3 C 94 % 13.35 C
338 14-08-2016 04:05:00 14.3 C 95 % 13.51 C
339 14-08-2016 04:10:00 14.3 C 95 % 13.51 C
340 14-08-2016 04:15:00 14.2 C 94 % 13.25 C
341 14-08-2016 04:20:00 14.1 C 94 % 13.15 C
342 14-08-2016 04:25:00 14 C 94 % 13.05 C
343 14-08-2016 04:30:00 14 C 95 % 13.21 C
344 14-08-2016 04:35:00 14 C 95 % 13.21 C
345 14-08-2016 04:40:00 14 C 95 % 13.21 C
346 14-08-2016 04:45:00 14 C 95 % 13.21 C
347 14-08-2016 04:50:00 13.9 C 95 % 13.11 C
348 14-08-2016 04:55:00 13.9 C 95 % 13.11 C
349 14-08-2016 05:00:00 13.9 C 95 % 13.11 C
350 14-08-2016 05:05:00 13.9 C 95 % 13.11 C
Sensor: Nr:Datum:Temp:Feuchte:Taupunkt:
Aussen-T/F 351 14-08-2016 05:10:00 13.9 C 95 % 13.11 C
352 14-08-2016 05:15:00 13.9 C 95 % 13.11 C
353 14-08-2016 05:20:00 13.9 C 95 % 13.11 C
354 14-08-2016 05:25:00 14 C 96 % 13.37 C
355 14-08-2016 05:30:00 14 C 95 % 13.21 C
356 14-08-2016 05:35:00 13.9 C 95 % 13.11 C
357 14-08-2016 05:40:00 13.9 C 95 % 13.11 C
358 14-08-2016 05:45:00 13.9 C 95 % 13.11 C
359 14-08-2016 05:50:00 13.8 C 95 % 13.01 C
360 14-08-2016 05:55:00 13.8 C 95 % 13.01 C
361 14-08-2016 06:00:00 13.7 C 95 % 12.91 C
362 14-08-2016 06:05:00 13.6 C 95 % 12.81 C
363 14-08-2016 06:10:00 13.6 C 95 % 12.81 C
364 14-08-2016 06:15:00 13.4 C 95 % 12.62 C
365 14-08-2016 06:20:00 13.5 C 95 % 12.72 C
366 14-08-2016 06:25:00 13.6 C 95 % 12.81 C
367 14-08-2016 06:30:00 13.6 C 95 % 12.81 C
368 14-08-2016 06:35:00 13.6 C 95 % 12.81 C
369 14-08-2016 06:40:00 13.5 C 95 % 12.72 C
370 14-08-2016 06:45:00 13.6 C 96 % 12.97 C
371 14-08-2016 06:50:00 13.6 C 96 % 12.97 C
372 14-08-2016 06:55:00 13.6 C 96 % 12.97 C
373 14-08-2016 07:00:00 13.7 C 96 % 13.07 C
374 14-08-2016 07:05:00 13.8 C 96 % 13.17 C
375 14-08-2016 07:10:00 13.9 C 96 % 13.27 C
Sensor: Nr:Datum:Temp:Feuchte:Taupunkt:
Aussen-T/F 376 14-08-2016 07:15:00 13.9 C 96 % 13.27 C
377 14-08-2016 07:20:00 14 C 96 % 13.37 C
378 14-08-2016 07:25:00 14.1 C 96 % 13.47 C
379 14-08-2016 07:30:00 14.1 C 96 % 13.47 C
380 14-08-2016 07:35:00 14.1 C 96 % 13.47 C
381 14-08-2016 07:40:00 14.2 C 96 % 13.57 C
382 14-08-2016 07:45:00 14.2 C 96 % 13.57 C
383 14-08-2016 07:50:00 14.2 C 96 % 13.57 C
384 14-08-2016 07:55:00 14.2 C 96 % 13.57 C
385 14-08-2016 08:00:00 14.3 C 96 % 13.67 C
386 14-08-2016 08:05:00 14.3 C 96 % 13.67 C
387 14-08-2016 08:10:00 14.3 C 96 % 13.67 C
388 14-08-2016 08:15:00 14.4 C 96 % 13.77 C
389 14-08-2016 08:20:00 14.4 C 96 % 13.77 C
390 14-08-2016 08:25:00 14.4 C 96 % 13.77 C
391 14-08-2016 08:30:00 14.4 C 96 % 13.77 C
392 14-08-2016 08:35:00 14.5 C 96 % 13.87 C
393 14-08-2016 08:40:00 14.6 C 96 % 13.97 C
394 14-08-2016 08:45:00 14.7 C 96 % 14.07 C
395 14-08-2016 08:50:00 14.7 C 96 % 14.07 C
396 14-08-2016 08:55:00 14.8 C 96 % 14.17 C
397 14-08-2016 09:00:00 14.8 C 96 % 14.17 C
398 14-08-2016 09:05:00 14.9 C 96 % 14.27 C
399 14-08-2016 09:10:00 14.9 C 96 % 14.27 C
400 14-08-2016 09:15:00 15 C 96 % 14.37 C
Sensor: Nr:Datum:Temp:Feuchte:Taupunkt:
Aussen-T/F 401 14-08-2016 09:20:00 15.1 C 96 % 14.47 C
402 14-08-2016 09:25:00 15.2 C 96 % 14.57 C
403 14-08-2016 09:30:00 15.3 C 96 % 14.67 C
404 14-08-2016 09:35:00 15.4 C 96 % 14.77 C
405 14-08-2016 09:40:00 15.6 C 96 % 14.96 C
406 14-08-2016 09:45:00 15.7 C 96 % 15.06 C
407 14-08-2016 09:50:00 15.8 C 96 % 15.16 C
408 14-08-2016 09:55:00 15.9 C 96 % 15.26 C
409 14-08-2016 10:00:00 16.1 C 96 % 15.46 C
410 14-08-2016 10:05:00 16.2 C 96 % 15.56 C
411 14-08-2016 10:10:00 16.4 C 95 % 15.6 C
412 14-08-2016 10:15:00 16.6 C 95 % 15.8 C
413 14-08-2016 10:20:00 16.7 C 95 % 15.9 C
414 14-08-2016 10:25:00 16.8 C 95 % 15.99 C
415 14-08-2016 10:30:00 16.9 C 94 % 15.93 C
416 14-08-2016 10:35:00 17.2 C 94 % 16.23 C
417 14-08-2016 10:40:00 17.3 C 94 % 16.33 C
418 14-08-2016 10:45:00 17.6 C 93 % 16.45 C
419 14-08-2016 10:50:00 17.8 C 93 % 16.65 C
420 14-08-2016 10:55:00 17.9 C 92 % 16.58 C
421 14-08-2016 11:00:00 18.1 C 92 % 16.78 C
422 14-08-2016 11:05:00 18.2 C 92 % 16.88 C
423 14-08-2016 11:10:00 18.3 C 92 % 16.98 C
424 14-08-2016 11:15:00 18.4 C 92 % 17.08 C
425 14-08-2016 11:20:00 18.6 C 90 % 16.93 C
Sensor: Nr:Datum:Temp:Feuchte:Taupunkt:
Aussen-T/F 426 14-08-2016 11:25:00 18.9 C 90 % 17.22 C
427 14-08-2016 11:30:00 19.1 C 90 % 17.42 C
428 14-08-2016 11:35:00 19.2 C 90 % 17.52 C
429 14-08-2016 11:40:00 19.3 C 90 % 17.62 C
430 14-08-2016 11:45:00 19.3 C 90 % 17.62 C
431 14-08-2016 11:50:00 19.3 C 89 % 17.44 C
432 14-08-2016 11:55:00 19.6 C 88 % 17.56 C
433 14-08-2016 12:00:00 19.8 C 87 % 17.57 C
434 14-08-2016 12:05:00 20.1 C 85 % 17.5 C
435 14-08-2016 12:10:00 20.3 C 82 % 17.13 C
436 14-08-2016 12:15:00 20.6 C 82 % 17.42 C
437 14-08-2016 12:20:00 20.8 C 82 % 17.61 C
438 14-08-2016 12:25:00 21.1 C 79 % 17.32 C
439 14-08-2016 12:30:00 21.3 C 78 % 17.31 C
440 14-08-2016 12:35:00 21.6 C 78 % 17.6 C
441 14-08-2016 12:40:00 21.7 C 73 % 16.65 C
442 14-08-2016 12:45:00 21.9 C 75 % 17.27 C
443 14-08-2016 12:50:00 22.2 C 74 % 17.34 C
444 14-08-2016 12:55:00 22.4 C 73 % 17.32 C
445 14-08-2016 13:00:00 22.5 C 72 % 17.2 C
446 14-08-2016 13:05:00 22.6 C 74 % 17.73 C
447 14-08-2016 13:10:00 22.7 C 77 % 18.46 C
448 14-08-2016 13:15:00 22.6 C 77 % 18.36 C
449 14-08-2016 13:20:00 22.3 C 78 % 18.28 C
450 14-08-2016 13:25:00 22.1 C 77 % 17.88 C
Sensor: Nr:Datum:Temp:Feuchte:Taupunkt:
Aussen-T/F 451 14-08-2016 13:30:00 22 C 77 % 17.78 C
452 14-08-2016 13:35:00 22.2 C 73 % 17.13 C
453 14-08-2016 13:40:00 22.5 C 72 % 17.2 C
454 14-08-2016 13:45:00 22.8 C 70 % 17.04 C
455 14-08-2016 13:50:00 23.4 C 68 % 17.16 C
456 14-08-2016 13:55:00 23.7 C 64 % 16.49 C
457 14-08-2016 14:00:00 23.8 C 64 % 16.58 C
458 14-08-2016 14:05:00 23.8 C 66 % 17.07 C
459 14-08-2016 14:10:00 23.8 C 67 % 17.3 C
460 14-08-2016 14:15:00 23.7 C 68 % 17.44 C
461 14-08-2016 14:20:00 23.7 C 68 % 17.44 C
462 14-08-2016 14:25:00 23.7 C 66 % 16.97 C
463 14-08-2016 14:30:00 23.8 C 65 % 16.83 C
464 14-08-2016 14:35:00 23.8 C 66 % 17.07 C
465 14-08-2016 14:40:00 23.9 C 66 % 17.16 C
466 14-08-2016 14:45:00 23.8 C 71 % 18.22 C
467 14-08-2016 14:50:00 23.8 C 66 % 17.07 C
468 14-08-2016 14:55:00 23.9 C 64 % 16.68 C
469 14-08-2016 15:00:00 24.1 C 64 % 16.86 C
470 14-08-2016 15:05:00 24.1 C 68 % 17.82 C
471 14-08-2016 15:10:00 24.2 C 65 % 17.2 C
472 14-08-2016 15:15:00 24.3 C 64 % 17.05 C
473 14-08-2016 15:20:00 24.5 C 64 % 17.24 C
474 14-08-2016 15:25:00 24.7 C 60 % 16.41 C
475 14-08-2016 15:30:00 24.9 C 60 % 16.6 C
Sensor: Nr:Datum:Temp:Feuchte:Taupunkt:
Aussen-T/F 476 14-08-2016 15:35:00 25 C 60 % 16.7 C
477 14-08-2016 15:40:00 24.8 C 62 % 17.02 C
478 14-08-2016 15:45:00 24.8 C 64 % 17.53 C
479 14-08-2016 15:50:00 25 C 62 % 17.21 C
480 14-08-2016 15:55:00 25.2 C 61 % 17.14 C
481 14-08-2016 16:00:00 25.5 C 58 % 16.63 C
482 14-08-2016 16:05:00 25.8 C 57 % 16.64 C
483 14-08-2016 16:10:00 25.8 C 55 % 16.07 C
484 14-08-2016 16:15:00 25.6 C 58 % 16.72 C
485 14-08-2016 16:20:00 25.7 C 58 % 16.82 C
486 14-08-2016 16:25:00 26.1 C 57 % 16.92 C
487 14-08-2016 16:30:00 26.5 C 55 % 16.72 C
488 14-08-2016 16:35:00 26.6 C 58 % 17.66 C
489 14-08-2016 16:40:00 26.8 C 52 % 16.12 C
490 14-08-2016 16:45:00 26.6 C 53 % 16.23 C
491 14-08-2016 16:50:00 26.3 C 54 % 16.25 C
492 14-08-2016 16:55:00 26.2 C 60 % 17.82 C
493 14-08-2016 17:00:00 26.3 C 54 % 16.25 C
494 14-08-2016 17:05:00 26.1 C 53 % 15.77 C
495 14-08-2016 17:10:00 26 C 55 % 16.26 C
496 14-08-2016 17:15:00 26.2 C 54 % 16.16 C
497 14-08-2016 17:20:00 26.3 C 54 % 16.25 C
498 14-08-2016 17:25:00 26.6 C 52 % 15.94 C
499 14-08-2016 17:30:00 26.6 C 51 % 15.63 C
500 14-08-2016 17:35:00 26.4 C 51 % 15.45 C
Sensor: Nr:Datum:Temp:Feuchte:Taupunkt:
Aussen-T/F 501 14-08-2016 17:40:00 26.2 C 55 % 16.45 C
502 14-08-2016 17:45:00 26.2 C 53 % 15.87 C
503 14-08-2016 17:50:00 26.2 C 53 % 15.87 C
504 14-08-2016 17:55:00 25.8 C 53 % 15.5 C
505 14-08-2016 18:00:00 25.7 C 54 % 15.7 C
506 14-08-2016 18:05:00 25.7 C 53 % 15.4 C
507 14-08-2016 18:10:00 25.9 C 52 % 15.29 C
508 14-08-2016 18:15:00 26.2 C 52 % 15.57 C
509 14-08-2016 18:20:00 26.4 C 50 % 15.14 C
510 14-08-2016 18:25:00 26.4 C 51 % 15.45 C
511 14-08-2016 18:30:00 26.2 C 50 % 14.96 C
512 14-08-2016 18:35:00 25.8 C 51 % 14.9 C
513 14-08-2016 18:40:00 25.6 C 53 % 15.31 C
514 14-08-2016 18:45:00 25.3 C 52 % 14.74 C
515 14-08-2016 18:50:00 25.1 C 53 % 14.85 C
516 14-08-2016 18:55:00 25 C 55 % 15.33 C
517 14-08-2016 19:00:00 25.1 C 54 % 15.14 C
518 14-08-2016 19:05:00 25.1 C 54 % 15.14 C
519 14-08-2016 19:10:00 24.8 C 55 % 15.15 C
520 14-08-2016 19:15:00 24.6 C 57 % 15.52 C
521 14-08-2016 19:20:00 24.4 C 57 % 15.33 C
522 14-08-2016 19:25:00 24.3 C 57 % 15.24 C
523 14-08-2016 19:30:00 24.1 C 58 % 15.32 C
524 14-08-2016 19:35:00 24 C 59 % 15.5 C
525 14-08-2016 19:40:00 23.9 C 59 % 15.4 C
Sensor: Nr:Datum:Temp:Feuchte:Taupunkt:
Aussen-T/F 526 14-08-2016 19:45:00 23.9 C 60 % 15.66 C
527 14-08-2016 19:50:00 23.8 C 59 % 15.31 C
528 14-08-2016 19:55:00 23.8 C 60 % 15.57 C
529 14-08-2016 20:00:00 23.8 C 59 % 15.31 C
530 14-08-2016 20:05:00 23.8 C 59 % 15.31 C
531 14-08-2016 20:10:00 23.7 C 60 % 15.48 C
532 14-08-2016 20:15:00 23.7 C 60 % 15.48 C
533 14-08-2016 20:20:00 23.6 C 61 % 15.64 C
534 14-08-2016 20:25:00 23.4 C 62 % 15.71 C
535 14-08-2016 20:30:00 23.3 C 63 % 15.86 C
536 14-08-2016 20:35:00 23.2 C 63 % 15.77 C
537 14-08-2016 20:40:00 23 C 63 % 15.58 C
538 14-08-2016 20:45:00 22.9 C 64 % 15.73 C
539 14-08-2016 20:50:00 22.8 C 65 % 15.88 C
540 14-08-2016 20:55:00 22.6 C 66 % 15.93 C
541 14-08-2016 21:00:00 22.4 C 66 % 15.74 C
542 14-08-2016 21:05:00 22.3 C 67 % 15.88 C
543 14-08-2016 21:10:00 22.1 C 69 % 16.15 C
544 14-08-2016 21:15:00 21.8 C 69 % 15.86 C
545 14-08-2016 21:20:00 21.6 C 71 % 16.12 C
546 14-08-2016 21:25:00 21.2 C 73 % 16.17 C
547 14-08-2016 21:30:00 20.8 C 74 % 16 C
548 14-08-2016 21:35:00 20.4 C 75 % 15.82 C
549 14-08-2016 21:40:00 20.1 C 77 % 15.94 C
550 14-08-2016 21:45:00 19.7 C 78 % 15.76 C
Sensor: Nr:Datum:Temp:Feuchte:Taupunkt:
Aussen-T/F 551 14-08-2016 21:50:00 19.5 C 80 % 15.96 C
552 14-08-2016 21:55:00 19.4 C 80 % 15.86 C
553 14-08-2016 22:00:00 19.3 C 80 % 15.76 C
554 14-08-2016 22:05:00 19.1 C 81 % 15.76 C
555 14-08-2016 22:10:00 19 C 81 % 15.67 C
556 14-08-2016 22:15:00 18.9 C 81 % 15.57 C
557 14-08-2016 22:20:00 18.8 C 82 % 15.66 C
558 14-08-2016 22:25:00 18.7 C 82 % 15.57 C
559 14-08-2016 22:30:00 18.5 C 83 % 15.56 C
560 14-08-2016 22:35:00 18.3 C 83 % 15.36 C
561 14-08-2016 22:40:00 18.2 C 84 % 15.45 C
562 14-08-2016 22:45:00 18.1 C 84 % 15.35 C
563 14-08-2016 22:50:00 17.9 C 85 % 15.34 C
564 14-08-2016 22:55:00 17.9 C 85 % 15.34 C
565 14-08-2016 23:00:00 17.8 C 86 % 15.43 C
566 14-08-2016 23:05:00 17.8 C 86 % 15.43 C
567 14-08-2016 23:10:00 17.7 C 86 % 15.33 C
568 14-08-2016 23:15:00 17.7 C 86 % 15.33 C
569 14-08-2016 23:20:00 17.7 C 86 % 15.33 C
570 14-08-2016 23:25:00 17.6 C 86 % 15.23 C
571 14-08-2016 23:30:00 17.6 C 86 % 15.23 C
572 14-08-2016 23:35:00 17.6 C 86 % 15.23 C
573 14-08-2016 23:40:00 17.5 C 86 % 15.13 C
574 14-08-2016 23:45:00 17.5 C 87 % 15.31 C
575 14-08-2016 23:50:00 17.5 C 87 % 15.31 C
Sensor: Nr:Datum:Temp:Feuchte:Taupunkt:
Aussen-T/F 576 14-08-2016 23:55:00 17.5 C 87 % 15.31 C

Legende:
   Min
   Max


Maximal/Minimal-Werte vom 13.08.2016 - 14.08.2016

Sensor Min Max Avg
Temp
(Aussen-T/F)
13.4 °C
14-08-2016  06:15:00
30 °C
13-08-2016  17:15:00
19.86 °C
Feuchte
(Aussen-T/F)
35 %
13-08-2016  18:30:00
96 %
13-08-2016  07:25:00
79.44 %
Taupunkt
(Aussen-T/F)
12.62 C
14-08-2016  06:15:00
19.76 C
13-08-2016  14:55:00
15.67 C

Die Daten stammen von einer Davis Vantage Pro 2 Wetter-Station und werden unter Linux mit der Software wview2wettercgi und aufbereitet. Alle Angaben erfolgen ohne Gewähr für ihre Vollständigkeit oder Richtigkeit.
Kontakt: Rainer Krienke krienke@uni-koblenz.de . Meine Webseiten an der Uni Koblenz oder privat.
Version: $Revision: 0.78 $